sensor_id;sensor_type;location;lat;lon;timestamp;temperature;humidity
21678;DHT22;11000;50.360;7.582;2023-02-19T00:01:42;10.40;99.90
21678;DHT22;11000;50.360;7.582;2023-02-19T00:04:05;10.40;99.90
21678;DHT22;11000;50.360;7.582;2023-02-19T00:06:28;10.40;99.90
21678;DHT22;11000;50.360;7.582;2023-02-19T00:08:49;10.40;99.90
21678;DHT22;11000;50.360;7.582;2023-02-19T00:11:15;10.40;99.90
21678;DHT22;11000;50.360;7.582;2023-02-19T00:13:45;10.40;99.90
21678;DHT22;11000;50.360;7.582;2023-02-19T00:16:11;10.40;99.90
21678;DHT22;11000;50.360;7.582;2023-02-19T00:18:32;10.40;99.90
21678;DHT22;11000;50.360;7.582;2023-02-19T00:20:55;10.30;99.90
21678;DHT22;11000;50.360;7.582;2023-02-19T00:23:16;10.30;99.90
21678;DHT22;11000;50.360;7.582;2023-02-19T00:25:37;10.20;99.90
21678;DHT22;11000;50.360;7.582;2023-02-19T00:27:57;10.20;99.90
21678;DHT22;11000;50.360;7.582;2023-02-19T00:30:18;10.20;99.90
21678;DHT22;11000;50.360;7.582;2023-02-19T00:32:38;10.20;99.90
21678;DHT22;11000;50.360;7.582;2023-02-19T00:34:59;10.20;99.90
21678;DHT22;11000;50.360;7.582;2023-02-19T00:37:19;10.20;99.90
21678;DHT22;11000;50.360;7.582;2023-02-19T00:39:40;10.20;99.90
21678;DHT22;11000;50.360;7.582;2023-02-19T00:42:00;10.20;99.90
21678;DHT22;11000;50.360;7.582;2023-02-19T00:44:21;10.20;99.90
21678;DHT22;11000;50.360;7.582;2023-02-19T00:46:44;10.10;99.90
21678;DHT22;11000;50.360;7.582;2023-02-19T00:49:06;10.10;99.90
21678;DHT22;11000;50.360;7.582;2023-02-19T00:51:29;10.10;99.90
21678;DHT22;11000;50.360;7.582;2023-02-19T00:53:50;10.10;99.90
21678;DHT22;11000;50.360;7.582;2023-02-19T00:56:11;10.00;99.90
21678;DHT22;11000;50.360;7.582;2023-02-19T00:58:32;10.00;99.90
21678;DHT22;11000;50.360;7.582;2023-02-19T01:00:52;10.00;99.90
21678;DHT22;11000;50.360;7.582;2023-02-19T01:03:13;10.00;99.90
21678;DHT22;11000;50.360;7.582;2023-02-19T01:05:33;10.00;99.90
21678;DHT22;11000;50.360;7.582;2023-02-19T01:07:54;10.00;99.90
21678;DHT22;11000;50.360;7.582;2023-02-19T01:10:15;10.00;99.90
21678;DHT22;11000;50.360;7.582;2023-02-19T01:12:35;10.00;99.90
21678;DHT22;11000;50.360;7.582;2023-02-19T01:14:56;10.00;99.90
21678;DHT22;11000;50.360;7.582;2023-02-19T01:17:17;10.00;99.90
21678;DHT22;11000;50.360;7.582;2023-02-19T01:19:37;10.00;99.90
21678;DHT22;11000;50.360;7.582;2023-02-19T01:21:58;10.00;99.90
21678;DHT22;11000;50.360;7.582;2023-02-19T01:24:18;10.00;99.90
21678;DHT22;11000;50.360;7.582;2023-02-19T01:26:39;10.00;99.90
21678;DHT22;11000;50.360;7.582;2023-02-19T01:29:00;10.00;99.90
21678;DHT22;11000;50.360;7.582;2023-02-19T01:31:22;10.00;99.90
21678;DHT22;11000;50.360;7.582;2023-02-19T01:33:48;10.00;99.90
21678;DHT22;11000;50.360;7.582;2023-02-19T01:36:09;10.00;99.90
21678;DHT22;11000;50.360;7.582;2023-02-19T01:38:30;10.00;99.90
21678;DHT22;11000;50.360;7.582;2023-02-19T01:40:59;10.00;99.90
21678;DHT22;11000;50.360;7.582;2023-02-19T01:43:19;10.00;99.90
21678;DHT22;11000;50.360;7.582;2023-02-19T01:45:43;10.00;99.90
21678;DHT22;11000;50.360;7.582;2023-02-19T01:48:11;10.00;99.90
21678;DHT22;11000;50.360;7.582;2023-02-19T01:50:47;10.00;99.90
21678;DHT22;11000;50.360;7.582;2023-02-19T01:53:11;10.00;99.90
21678;DHT22;11000;50.360;7.582;2023-02-19T01:55:32;10.00;99.90
21678;DHT22;11000;50.360;7.582;2023-02-19T01:57:54;10.00;99.90
21678;DHT22;11000;50.360;7.582;2023-02-19T02:00:17;10.00;99.90
21678;DHT22;11000;50.360;7.582;2023-02-19T02:02:40;10.00;99.90
21678;DHT22;11000;50.360;7.582;2023-02-19T02:05:02;10.00;99.90
21678;DHT22;11000;50.360;7.582;2023-02-19T02:07:23;10.00;99.90
21678;DHT22;11000;50.360;7.582;2023-02-19T02:10:03;10.00;99.90
21678;DHT22;11000;50.360;7.582;2023-02-19T02:12:42;10.00;99.90
21678;DHT22;11000;50.360;7.582;2023-02-19T02:15:03;10.00;99.90
21678;DHT22;11000;50.360;7.582;2023-02-19T02:23:01;10.00;99.90
21678;DHT22;11000;50.360;7.582;2023-02-19T02:28:32;10.00;99.90
21678;DHT22;11000;50.360;7.582;2023-02-19T02:30:58;10.00;99.90
21678;DHT22;11000;50.360;7.582;2023-02-19T02:38:22;10.10;99.90
21678;DHT22;11000;50.360;7.582;2023-02-19T02:40:44;10.10;99.90
21678;DHT22;11000;50.360;7.582;2023-02-19T02:43:05;10.10;99.90
21678;DHT22;11000;50.360;7.582;2023-02-19T02:45:31;10.10;99.90
21678;DHT22;11000;50.360;7.582;2023-02-19T02:47:56;10.10;99.90
21678;DHT22;11000;50.360;7.582;2023-02-19T02:50:29;10.00;99.90
21678;DHT22;11000;50.360;7.582;2023-02-19T02:52:55;10.00;99.90
21678;DHT22;11000;50.360;7.582;2023-02-19T02:55:40;10.10;99.90
21678;DHT22;11000;50.360;7.582;2023-02-19T02:58:02;10.10;99.90
21678;DHT22;11000;50.360;7.582;2023-02-19T03:00:25;10.10;99.90
21678;DHT22;11000;50.360;7.582;2023-02-19T03:03:07;10.10;99.90
21678;DHT22;11000;50.360;7.582;2023-02-19T03:05:27;10.10;99.90
21678;DHT22;11000;50.360;7.582;2023-02-19T03:08:15;10.10;99.90
21678;DHT22;11000;50.360;7.582;2023-02-19T03:10:50;10.10;99.90
21678;DHT22;11000;50.360;7.582;2023-02-19T03:13:31;10.10;99.90
21678;DHT22;11000;50.360;7.582;2023-02-19T03:16:33;10.10;99.90
21678;DHT22;11000;50.360;7.582;2023-02-19T03:19:18;10.10;99.90
21678;DHT22;11000;50.360;7.582;2023-02-19T03:21:40;10.10;99.90
21678;DHT22;11000;50.360;7.582;2023-02-19T03:24:03;10.10;99.90
21678;DHT22;11000;50.360;7.582;2023-02-19T03:26:51;10.10;99.90
21678;DHT22;11000;50.360;7.582;2023-02-19T03:29:13;10.10;99.90
21678;DHT22;11000;50.360;7.582;2023-02-19T03:31:44;10.10;99.90
21678;DHT22;11000;50.360;7.582;2023-02-19T03:34:09;10.10;99.90
21678;DHT22;11000;50.360;7.582;2023-02-19T03:36:43;10.10;99.90
21678;DHT22;11000;50.360;7.582;2023-02-19T03:39:07;10.20;99.90
21678;DHT22;11000;50.360;7.582;2023-02-19T03:41:41;10.10;99.90
21678;DHT22;11000;50.360;7.582;2023-02-19T03:44:26;10.10;99.90
21678;DHT22;11000;50.360;7.582;2023-02-19T03:49:41;10.10;99.90
21678;DHT22;11000;50.360;7.582;2023-02-19T03:52:31;10.10;99.90
21678;DHT22;11000;50.360;7.582;2023-02-19T03:55:56;10.10;99.90
21678;DHT22;11000;50.360;7.582;2023-02-19T03:57:55;10.10;99.90
21678;DHT22;11000;50.360;7.582;2023-02-19T04:00:29;10.10;99.90
21678;DHT22;11000;50.360;7.582;2023-02-19T04:03:19;10.20;99.90
21678;DHT22;11000;50.360;7.582;2023-02-19T04:05:46;10.10;99.90
21678;DHT22;11000;50.360;7.582;2023-02-19T04:08:14;10.20;99.90
21678;DHT22;11000;50.360;7.582;2023-02-19T04:10:36;10.20;99.90
21678;DHT22;11000;50.360;7.582;2023-02-19T04:13:03;10.20;99.90
21678;DHT22;11000;50.360;7.582;2023-02-19T04:15:28;10.20;99.90
21678;DHT22;11000;50.360;7.582;2023-02-19T04:17:54;10.20;99.90
21678;DHT22;11000;50.360;7.582;2023-02-19T04:20:16;10.20;99.90
21678;DHT22;11000;50.360;7.582;2023-02-19T04:22:38;10.20;99.90
21678;DHT22;11000;50.360;7.582;2023-02-19T04:24:59;10.20;99.90
21678;DHT22;11000;50.360;7.582;2023-02-19T04:27:20;10.20;99.90
21678;DHT22;11000;50.360;7.582;2023-02-19T04:29:41;10.20;99.90
21678;DHT22;11000;50.360;7.582;2023-02-19T04:32:01;10.20;99.90
21678;DHT22;11000;50.360;7.582;2023-02-19T04:34:22;10.20;99.90
21678;DHT22;11000;50.360;7.582;2023-02-19T04:36:42;10.20;99.90
21678;DHT22;11000;50.360;7.582;2023-02-19T04:39:04;10.20;99.90
21678;DHT22;11000;50.360;7.582;2023-02-19T04:41:24;10.20;99.90
21678;DHT22;11000;50.360;7.582;2023-02-19T04:43:45;10.20;99.90
21678;DHT22;11000;50.360;7.582;2023-02-19T04:46:05;10.20;99.90
21678;DHT22;11000;50.360;7.582;2023-02-19T04:48:26;10.20;99.90
21678;DHT22;11000;50.360;7.582;2023-02-19T04:50:47;10.30;99.90
21678;DHT22;11000;50.360;7.582;2023-02-19T04:53:07;10.20;99.90
21678;DHT22;11000;50.360;7.582;2023-02-19T04:55:28;10.20;99.90
21678;DHT22;11000;50.360;7.582;2023-02-19T04:57:48;10.20;99.90
21678;DHT22;11000;50.360;7.582;2023-02-19T05:00:09;10.20;99.90
21678;DHT22;11000;50.360;7.582;2023-02-19T05:02:30;10.20;99.90
21678;DHT22;11000;50.360;7.582;2023-02-19T05:04:50;10.20;99.90
21678;DHT22;11000;50.360;7.582;2023-02-19T05:07:11;10.20;99.90
21678;DHT22;11000;50.360;7.582;2023-02-19T05:09:31;10.20;99.90
21678;DHT22;11000;50.360;7.582;2023-02-19T05:11:52;10.20;99.90
21678;DHT22;11000;50.360;7.582;2023-02-19T05:14:12;10.20;99.90
21678;DHT22;11000;50.360;7.582;2023-02-19T05:16:33;10.20;99.90
21678;DHT22;11000;50.360;7.582;2023-02-19T05:18:54;10.20;99.90
21678;DHT22;11000;50.360;7.582;2023-02-19T05:21:14;10.20;99.90
21678;DHT22;11000;50.360;7.582;2023-02-19T05:23:35;10.20;99.90
21678;DHT22;11000;50.360;7.582;2023-02-19T05:25:56;10.20;99.90
21678;DHT22;11000;50.360;7.582;2023-02-19T05:28:17;10.10;99.90
21678;DHT22;11000;50.360;7.582;2023-02-19T05:30:37;10.10;99.90
21678;DHT22;11000;50.360;7.582;2023-02-19T05:32:58;10.20;99.90
21678;DHT22;11000;50.360;7.582;2023-02-19T05:35:18;10.10;99.90
21678;DHT22;11000;50.360;7.582;2023-02-19T05:37:39;10.10;99.90
21678;DHT22;11000;50.360;7.582;2023-02-19T05:39:59;10.10;99.90
21678;DHT22;11000;50.360;7.582;2023-02-19T05:42:20;10.10;99.90
21678;DHT22;11000;50.360;7.582;2023-02-19T05:44:41;10.00;99.90
21678;DHT22;11000;50.360;7.582;2023-02-19T05:47:01;10.00;99.90
21678;DHT22;11000;50.360;7.582;2023-02-19T05:49:22;9.90;99.90
21678;DHT22;11000;50.360;7.582;2023-02-19T05:51:42;9.90;99.90
21678;DHT22;11000;50.360;7.582;2023-02-19T05:54:03;9.90;99.90
21678;DHT22;11000;50.360;7.582;2023-02-19T05:56:31;9.90;99.90
21678;DHT22;11000;50.360;7.582;2023-02-19T05:58:53;9.90;99.90
21678;DHT22;11000;50.360;7.582;2023-02-19T06:01:15;9.90;99.90
21678;DHT22;11000;50.360;7.582;2023-02-19T06:03:36;9.90;99.90
21678;DHT22;11000;50.360;7.582;2023-02-19T06:05:56;9.90;99.90
21678;DHT22;11000;50.360;7.582;2023-02-19T06:08:17;9.90;99.90
21678;DHT22;11000;50.360;7.582;2023-02-19T06:10:38;9.90;99.90
21678;DHT22;11000;50.360;7.582;2023-02-19T06:13:00;9.90;99.90
21678;DHT22;11000;50.360;7.582;2023-02-19T06:15:21;9.90;99.90
21678;DHT22;11000;50.360;7.582;2023-02-19T06:17:41;9.90;99.90
21678;DHT22;11000;50.360;7.582;2023-02-19T06:20:02;9.90;99.90
21678;DHT22;11000;50.360;7.582;2023-02-19T06:22:22;9.90;99.90
21678;DHT22;11000;50.360;7.582;2023-02-19T06:24:43;9.90;99.90
21678;DHT22;11000;50.360;7.582;2023-02-19T06:27:07;9.90;99.90
21678;DHT22;11000;50.360;7.582;2023-02-19T06:29:28;9.90;99.90
21678;DHT22;11000;50.360;7.582;2023-02-19T06:31:49;9.90;99.90
21678;DHT22;11000;50.360;7.582;2023-02-19T06:34:09;9.90;99.90
21678;DHT22;11000;50.360;7.582;2023-02-19T06:36:30;9.90;99.90
21678;DHT22;11000;50.360;7.582;2023-02-19T06:38:50;9.90;99.90
21678;DHT22;11000;50.360;7.582;2023-02-19T06:41:11;9.90;99.90
21678;DHT22;11000;50.360;7.582;2023-02-19T06:43:32;9.90;99.90
21678;DHT22;11000;50.360;7.582;2023-02-19T06:45:53;9.90;99.90
21678;DHT22;11000;50.360;7.582;2023-02-19T06:48:14;10.00;99.90
21678;DHT22;11000;50.360;7.582;2023-02-19T06:50:34;10.00;99.90
21678;DHT22;11000;50.360;7.582;2023-02-19T06:52:55;10.00;99.90
21678;DHT22;11000;50.360;7.582;2023-02-19T06:55:15;10.10;99.90
21678;DHT22;11000;50.360;7.582;2023-02-19T06:57:36;10.10;99.90
21678;DHT22;11000;50.360;7.582;2023-02-19T06:59:56;10.20;99.90
21678;DHT22;11000;50.360;7.582;2023-02-19T07:02:17;10.20;99.90
21678;DHT22;11000;50.360;7.582;2023-02-19T07:04:37;10.20;99.90
21678;DHT22;11000;50.360;7.582;2023-02-19T07:06:58;10.20;99.90
21678;DHT22;11000;50.360;7.582;2023-02-19T07:09:19;10.20;99.90
21678;DHT22;11000;50.360;7.582;2023-02-19T07:11:40;10.20;99.90
21678;DHT22;11000;50.360;7.582;2023-02-19T07:14:02;10.20;99.90
21678;DHT22;11000;50.360;7.582;2023-02-19T07:16:24;10.20;99.90
21678;DHT22;11000;50.360;7.582;2023-02-19T07:18:44;10.20;99.90
21678;DHT22;11000;50.360;7.582;2023-02-19T07:21:10;10.20;99.90
21678;DHT22;11000;50.360;7.582;2023-02-19T07:23:31;10.20;99.90
21678;DHT22;11000;50.360;7.582;2023-02-19T07:25:52;10.20;99.90
21678;DHT22;11000;50.360;7.582;2023-02-19T07:28:12;10.20;99.90
21678;DHT22;11000;50.360;7.582;2023-02-19T07:30:33;10.20;99.90
21678;DHT22;11000;50.360;7.582;2023-02-19T07:32:53;10.20;99.90
21678;DHT22;11000;50.360;7.582;2023-02-19T07:35:14;10.10;99.90
21678;DHT22;11000;50.360;7.582;2023-02-19T07:37:34;10.10;99.90
21678;DHT22;11000;50.360;7.582;2023-02-19T07:39:55;10.20;99.90
21678;DHT22;11000;50.360;7.582;2023-02-19T07:42:16;10.20;99.90
21678;DHT22;11000;50.360;7.582;2023-02-19T07:44:36;10.20;99.90
21678;DHT22;11000;50.360;7.582;2023-02-19T07:46:57;10.20;99.90
21678;DHT22;11000;50.360;7.582;2023-02-19T07:49:17;10.20;99.90
21678;DHT22;11000;50.360;7.582;2023-02-19T07:51:41;10.20;99.90
21678;DHT22;11000;50.360;7.582;2023-02-19T07:54:03;10.20;99.90
21678;DHT22;11000;50.360;7.582;2023-02-19T07:56:23;10.20;99.90
21678;DHT22;11000;50.360;7.582;2023-02-19T07:58:44;10.20;99.90
21678;DHT22;11000;50.360;7.582;2023-02-19T08:01:23;10.30;99.90
21678;DHT22;11000;50.360;7.582;2023-02-19T08:04:02;10.30;99.90
21678;DHT22;11000;50.360;7.582;2023-02-19T08:06:23;10.30;99.90
21678;DHT22;11000;50.360;7.582;2023-02-19T08:08:43;10.30;99.90
21678;DHT22;11000;50.360;7.582;2023-02-19T08:11:05;10.40;99.90
21678;DHT22;11000;50.360;7.582;2023-02-19T08:13:50;10.40;99.90
21678;DHT22;11000;50.360;7.582;2023-02-19T08:16:13;10.40;99.90
21678;DHT22;11000;50.360;7.582;2023-02-19T08:18:37;10.30;99.90
21678;DHT22;11000;50.360;7.582;2023-02-19T08:20:58;10.40;99.90
21678;DHT22;11000;50.360;7.582;2023-02-19T08:23:19;10.40;99.90
21678;DHT22;11000;50.360;7.582;2023-02-19T08:25:42;10.30;99.90
21678;DHT22;11000;50.360;7.582;2023-02-19T08:28:04;10.40;99.90
21678;DHT22;11000;50.360;7.582;2023-02-19T08:30:26;10.30;99.90
21678;DHT22;11000;50.360;7.582;2023-02-19T08:32:46;10.40;99.90
21678;DHT22;11000;50.360;7.582;2023-02-19T08:35:07;10.40;99.90
21678;DHT22;11000;50.360;7.582;2023-02-19T08:37:27;10.40;99.90
21678;DHT22;11000;50.360;7.582;2023-02-19T08:39:48;10.50;99.90
21678;DHT22;11000;50.360;7.582;2023-02-19T08:42:08;10.50;99.90
21678;DHT22;11000;50.360;7.582;2023-02-19T08:44:29;10.50;99.90
21678;DHT22;11000;50.360;7.582;2023-02-19T08:46:49;10.50;99.90
21678;DHT22;11000;50.360;7.582;2023-02-19T08:49:10;10.50;99.90
21678;DHT22;11000;50.360;7.582;2023-02-19T08:51:30;10.50;99.90
21678;DHT22;11000;50.360;7.582;2023-02-19T08:53:51;10.50;99.90
21678;DHT22;11000;50.360;7.582;2023-02-19T08:56:14;10.50;99.90
21678;DHT22;11000;50.360;7.582;2023-02-19T08:58:35;10.50;99.90
21678;DHT22;11000;50.360;7.582;2023-02-19T09:00:56;10.50;99.90
21678;DHT22;11000;50.360;7.582;2023-02-19T09:03:17;10.50;99.90
21678;DHT22;11000;50.360;7.582;2023-02-19T09:05:37;10.50;99.90
21678;DHT22;11000;50.360;7.582;2023-02-19T09:07:58;10.50;99.90
21678;DHT22;11000;50.360;7.582;2023-02-19T09:10:19;10.40;99.90
21678;DHT22;11000;50.360;7.582;2023-02-19T09:12:40;10.40;99.90
21678;DHT22;11000;50.360;7.582;2023-02-19T09:15:00;10.40;99.90
21678;DHT22;11000;50.360;7.582;2023-02-19T09:17:21;10.40;99.90
21678;DHT22;11000;50.360;7.582;2023-02-19T09:19:41;10.40;99.90
21678;DHT22;11000;50.360;7.582;2023-02-19T09:22:03;10.40;99.90
21678;DHT22;11000;50.360;7.582;2023-02-19T09:24:24;10.40;99.90
21678;DHT22;11000;50.360;7.582;2023-02-19T09:26:48;10.40;99.90
21678;DHT22;11000;50.360;7.582;2023-02-19T09:29:09;10.40;99.90
21678;DHT22;11000;50.360;7.582;2023-02-19T09:31:29;10.40;99.90
21678;DHT22;11000;50.360;7.582;2023-02-19T09:33:50;10.50;99.90
21678;DHT22;11000;50.360;7.582;2023-02-19T09:36:11;10.60;99.90
21678;DHT22;11000;50.360;7.582;2023-02-19T09:38:32;10.60;99.90
21678;DHT22;11000;50.360;7.582;2023-02-19T09:40:52;10.70;99.90
21678;DHT22;11000;50.360;7.582;2023-02-19T09:43:19;10.70;99.90
21678;DHT22;11000;50.360;7.582;2023-02-19T09:45:42;10.80;99.90
21678;DHT22;11000;50.360;7.582;2023-02-19T09:48:05;10.80;99.90
21678;DHT22;11000;50.360;7.582;2023-02-19T09:50:33;10.90;99.90
21678;DHT22;11000;50.360;7.582;2023-02-19T09:52:59;10.90;99.90
21678;DHT22;11000;50.360;7.582;2023-02-19T09:57:52;10.90;99.90
21678;DHT22;11000;50.360;7.582;2023-02-19T10:00:21;10.90;99.90
21678;DHT22;11000;50.360;7.582;2023-02-19T10:02:43;11.00;99.90
21678;DHT22;11000;50.360;7.582;2023-02-19T10:05:11;11.00;99.90
21678;DHT22;11000;50.360;7.582;2023-02-19T10:07:37;11.00;99.90
21678;DHT22;11000;50.360;7.582;2023-02-19T10:12:33;11.00;99.90
21678;DHT22;11000;50.360;7.582;2023-02-19T10:17:48;11.10;99.90
21678;DHT22;11000;50.360;7.582;2023-02-19T10:20:15;11.10;99.90
21678;DHT22;11000;50.360;7.582;2023-02-19T10:22:36;11.10;99.90
21678;DHT22;11000;50.360;7.582;2023-02-19T10:24:58;11.20;99.90
21678;DHT22;11000;50.360;7.582;2023-02-19T10:27:19;11.30;99.90
21678;DHT22;11000;50.360;7.582;2023-02-19T10:29:43;11.30;99.90
21678;DHT22;11000;50.360;7.582;2023-02-19T10:32:12;11.40;99.90
21678;DHT22;11000;50.360;7.582;2023-02-19T10:34:32;11.40;99.90
21678;DHT22;11000;50.360;7.582;2023-02-19T10:36:53;11.40;99.90
21678;DHT22;11000;50.360;7.582;2023-02-19T10:41:55;11.40;99.90
21678;DHT22;11000;50.360;7.582;2023-02-19T10:44:21;11.40;99.90
21678;DHT22;11000;50.360;7.582;2023-02-19T10:46:49;11.40;99.90
21678;DHT22;11000;50.360;7.582;2023-02-19T10:51:51;11.40;99.90
21678;DHT22;11000;50.360;7.582;2023-02-19T10:54:25;11.40;99.90
21678;DHT22;11000;50.360;7.582;2023-02-19T10:56:47;11.40;99.90
21678;DHT22;11000;50.360;7.582;2023-02-19T10:59:22;11.50;99.90
21678;DHT22;11000;50.360;7.582;2023-02-19T11:02:01;11.50;99.90
21678;DHT22;11000;50.360;7.582;2023-02-19T11:04:22;11.50;99.90
21678;DHT22;11000;50.360;7.582;2023-02-19T11:06:44;11.40;99.90
21678;DHT22;11000;50.360;7.582;2023-02-19T11:09:33;11.40;99.90
21678;DHT22;11000;50.360;7.582;2023-02-19T11:11:56;11.40;99.90
21678;DHT22;11000;50.360;7.582;2023-02-19T11:14:21;11.40;99.90
21678;DHT22;11000;50.360;7.582;2023-02-19T11:16:44;11.30;99.90
21678;DHT22;11000;50.360;7.582;2023-02-19T11:19:15;11.30;99.90
21678;DHT22;11000;50.360;7.582;2023-02-19T11:21:39;11.30;99.90
21678;DHT22;11000;50.360;7.582;2023-02-19T11:24:00;11.20;99.90
21678;DHT22;11000;50.360;7.582;2023-02-19T11:26:26;11.20;99.90
21678;DHT22;11000;50.360;7.582;2023-02-19T11:28:55;11.10;99.90
21678;DHT22;11000;50.360;7.582;2023-02-19T11:36:31;11.00;99.90
21678;DHT22;11000;50.360;7.582;2023-02-19T11:38:54;10.90;99.90
21678;DHT22;11000;50.360;7.582;2023-02-19T11:44:07;11.00;99.90
21678;DHT22;11000;50.360;7.582;2023-02-19T11:46:44;11.00;99.90
21678;DHT22;11000;50.360;7.582;2023-02-19T11:49:31;11.00;99.90
21678;DHT22;11000;50.360;7.582;2023-02-19T11:52:06;11.00;99.90
21678;DHT22;11000;50.360;7.582;2023-02-19T11:54:48;11.00;99.90
21678;DHT22;11000;50.360;7.582;2023-02-19T12:00:25;11.00;99.90
21678;DHT22;11000;50.360;7.582;2023-02-19T12:02:51;10.90;99.90
21678;DHT22;11000;50.360;7.582;2023-02-19T12:05:22;10.90;99.90
21678;DHT22;11000;50.360;7.582;2023-02-19T12:08:09;10.90;99.90
21678;DHT22;11000;50.360;7.582;2023-02-19T12:11:03;10.80;99.90
21678;DHT22;11000;50.360;7.582;2023-02-19T12:13:51;10.80;99.90
21678;DHT22;11000;50.360;7.582;2023-02-19T12:21:21;10.60;99.90
21678;DHT22;11000;50.360;7.582;2023-02-19T12:24:11;10.60;99.90
21678;DHT22;11000;50.360;7.582;2023-02-19T12:29:35;10.40;99.90
21678;DHT22;11000;50.360;7.582;2023-02-19T12:32:07;10.40;99.90
21678;DHT22;11000;50.360;7.582;2023-02-19T12:35:06;10.30;99.90
21678;DHT22;11000;50.360;7.582;2023-02-19T12:37:47;10.30;99.90
21678;DHT22;11000;50.360;7.582;2023-02-19T12:45:23;10.40;99.90
21678;DHT22;11000;50.360;7.582;2023-02-19T12:48:05;10.50;99.90
21678;DHT22;11000;50.360;7.582;2023-02-19T12:50:29;10.40;99.90
21678;DHT22;11000;50.360;7.582;2023-02-19T12:55:57;10.40;99.90
21678;DHT22;11000;50.360;7.582;2023-02-19T12:58:29;10.40;99.90
21678;DHT22;11000;50.360;7.582;2023-02-19T13:00:55;10.40;99.90
21678;DHT22;11000;50.360;7.582;2023-02-19T13:03:31;10.50;99.90
21678;DHT22;11000;50.360;7.582;2023-02-19T13:08:44;10.70;99.90
21678;DHT22;11000;50.360;7.582;2023-02-19T13:11:16;10.80;99.90
21678;DHT22;11000;50.360;7.582;2023-02-19T13:13:52;10.90;99.90
21678;DHT22;11000;50.360;7.582;2023-02-19T13:16:16;10.90;99.90
21678;DHT22;11000;50.360;7.582;2023-02-19T13:18:49;11.00;99.90
21678;DHT22;11000;50.360;7.582;2023-02-19T13:21:12;11.00;99.90
21678;DHT22;11000;50.360;7.582;2023-02-19T13:23:56;11.10;99.90
21678;DHT22;11000;50.360;7.582;2023-02-19T13:26:42;11.10;99.90
21678;DHT22;11000;50.360;7.582;2023-02-19T13:29:25;11.10;99.90
21678;DHT22;11000;50.360;7.582;2023-02-19T13:36:54;11.30;99.90
21678;DHT22;11000;50.360;7.582;2023-02-19T13:39:15;11.40;99.90
21678;DHT22;11000;50.360;7.582;2023-02-19T13:41:51;11.50;99.90
21678;DHT22;11000;50.360;7.582;2023-02-19T13:44:17;11.50;99.90
21678;DHT22;11000;50.360;7.582;2023-02-19T13:46:41;11.50;99.90
21678;DHT22;11000;50.360;7.582;2023-02-19T13:49:47;11.60;99.90
21678;DHT22;11000;50.360;7.582;2023-02-19T13:54:49;11.70;99.90
21678;DHT22;11000;50.360;7.582;2023-02-19T13:59:43;11.70;99.90
21678;DHT22;11000;50.360;7.582;2023-02-19T14:02:10;11.60;99.90
21678;DHT22;11000;50.360;7.582;2023-02-19T14:04:57;11.50;99.90
21678;DHT22;11000;50.360;7.582;2023-02-19T14:09:58;11.00;99.90
21678;DHT22;11000;50.360;7.582;2023-02-19T14:12:21;10.80;99.90
21678;DHT22;11000;50.360;7.582;2023-02-19T14:14:50;10.60;99.90
21678;DHT22;11000;50.360;7.582;2023-02-19T14:17:37;10.60;99.90
21678;DHT22;11000;50.360;7.582;2023-02-19T14:22:48;10.40;99.90
21678;DHT22;11000;50.360;7.582;2023-02-19T14:27:49;10.30;99.90
21678;DHT22;11000;50.360;7.582;2023-02-19T14:30:12;10.30;99.90
21678;DHT22;11000;50.360;7.582;2023-02-19T14:32:33;10.40;99.90
21678;DHT22;11000;50.360;7.582;2023-02-19T14:34:53;10.40;99.90
21678;DHT22;11000;50.360;7.582;2023-02-19T14:37:18;10.30;99.90
21678;DHT22;11000;50.360;7.582;2023-02-19T14:39:39;10.40;99.90
21678;DHT22;11000;50.360;7.582;2023-02-19T14:42:24;10.30;99.90
21678;DHT22;11000;50.360;7.582;2023-02-19T14:45:06;10.30;99.90
21678;DHT22;11000;50.360;7.582;2023-02-19T14:47:28;10.30;99.90
21678;DHT22;11000;50.360;7.582;2023-02-19T14:49:57;10.10;99.90
21678;DHT22;11000;50.360;7.582;2023-02-19T14:54:54;10.10;99.90
21678;DHT22;11000;50.360;7.582;2023-02-19T14:57:28;10.10;99.90
21678;DHT22;11000;50.360;7.582;2023-02-19T14:59:59;10.20;99.90
21678;DHT22;11000;50.360;7.582;2023-02-19T15:02:20;10.30;99.90
21678;DHT22;11000;50.360;7.582;2023-02-19T15:04:43;10.30;99.90
21678;DHT22;11000;50.360;7.582;2023-02-19T15:07:06;10.30;99.90
21678;DHT22;11000;50.360;7.582;2023-02-19T15:09:34;10.30;99.90
21678;DHT22;11000;50.360;7.582;2023-02-19T15:11:55;10.30;99.90
21678;DHT22;11000;50.360;7.582;2023-02-19T15:14:21;10.30;99.90
21678;DHT22;11000;50.360;7.582;2023-02-19T15:16:43;10.20;99.90
21678;DHT22;11000;50.360;7.582;2023-02-19T15:19:08;10.20;99.90
21678;DHT22;11000;50.360;7.582;2023-02-19T15:21:31;10.20;99.90
21678;DHT22;11000;50.360;7.582;2023-02-19T15:23:59;10.20;99.90
21678;DHT22;11000;50.360;7.582;2023-02-19T15:26:24;10.20;99.90
21678;DHT22;11000;50.360;7.582;2023-02-19T15:28:56;10.20;99.90
21678;DHT22;11000;50.360;7.582;2023-02-19T15:31:17;10.20;99.90
21678;DHT22;11000;50.360;7.582;2023-02-19T15:33:38;10.20;99.90
21678;DHT22;11000;50.360;7.582;2023-02-19T15:36:02;10.20;99.90
21678;DHT22;11000;50.360;7.582;2023-02-19T15:38:24;10.20;99.90
21678;DHT22;11000;50.360;7.582;2023-02-19T15:40:47;10.20;99.90
21678;DHT22;11000;50.360;7.582;2023-02-19T15:43:20;10.20;99.90
21678;DHT22;11000;50.360;7.582;2023-02-19T15:45:44;10.20;99.90
21678;DHT22;11000;50.360;7.582;2023-02-19T15:48:19;10.20;99.90
21678;DHT22;11000;50.360;7.582;2023-02-19T15:50:46;10.20;99.90
21678;DHT22;11000;50.360;7.582;2023-02-19T15:53:13;10.20;99.90
21678;DHT22;11000;50.360;7.582;2023-02-19T16:00:55;10.10;99.90
21678;DHT22;11000;50.360;7.582;2023-02-19T16:03:20;10.10;99.90
21678;DHT22;11000;50.360;7.582;2023-02-19T16:05:41;10.10;99.90
21678;DHT22;11000;50.360;7.582;2023-02-19T16:08:14;10.10;99.90
21678;DHT22;11000;50.360;7.582;2023-02-19T16:10:36;10.10;99.90
21678;DHT22;11000;50.360;7.582;2023-02-19T16:12:59;10.10;99.90
21678;DHT22;11000;50.360;7.582;2023-02-19T16:15:20;10.10;99.90
21678;DHT22;11000;50.360;7.582;2023-02-19T16:17:42;10.10;99.90
21678;DHT22;11000;50.360;7.582;2023-02-19T16:20:05;10.00;99.90
21678;DHT22;11000;50.360;7.582;2023-02-19T16:22:28;10.00;99.90
21678;DHT22;11000;50.360;7.582;2023-02-19T16:24:54;10.00;99.90
21678;DHT22;11000;50.360;7.582;2023-02-19T16:27:40;10.00;99.90
21678;DHT22;11000;50.360;7.582;2023-02-19T16:32:34;9.90;99.90
21678;DHT22;11000;50.360;7.582;2023-02-19T16:34:54;9.90;99.90
21678;DHT22;11000;50.360;7.582;2023-02-19T16:42:36;9.90;99.90
21678;DHT22;11000;50.360;7.582;2023-02-19T16:44:57;9.90;99.90
21678;DHT22;11000;50.360;7.582;2023-02-19T16:47:24;9.90;99.90
21678;DHT22;11000;50.360;7.582;2023-02-19T16:49:45;9.90;99.90
21678;DHT22;11000;50.360;7.582;2023-02-19T16:52:06;9.80;99.90
21678;DHT22;11000;50.360;7.582;2023-02-19T16:54:26;9.80;99.90